createdAt,value
2017-07-17T00:01:07.996Z,61.96
2017-07-17T00:03:35.942Z,61.97
2017-07-17T00:06:03.875Z,61.99
2017-07-17T00:08:31.800Z,61.99
2017-07-17T00:10:59.727Z,62.02
2017-07-17T00:13:27.640Z,62.01
2017-07-17T00:15:55.579Z,61.98
2017-07-17T00:18:23.514Z,61.95
2017-07-17T00:20:51.443Z,61.98
2017-07-17T00:23:19.373Z,62.04
2017-07-17T00:25:47.305Z,62.03
2017-07-17T00:28:15.251Z,62.09
2017-07-17T00:30:43.178Z,62.10
2017-07-17T00:33:11.095Z,62.11
2017-07-17T00:35:39.025Z,62.11
2017-07-17T00:38:06.975Z,62.14
2017-07-17T00:40:34.918Z,62.17
2017-07-17T00:43:02.853Z,62.18
2017-07-17T00:45:30.815Z,62.17
2017-07-17T00:47:58.718Z,62.18
2017-07-17T00:50:26.669Z,62.17
2017-07-17T00:52:54.633Z,62.20
2017-07-17T00:55:22.548Z,62.18
2017-07-17T00:57:50.488Z,62.17
2017-07-17T01:00:18.418Z,62.16
2017-07-17T01:02:46.350Z,62.13
2017-07-17T01:05:14.285Z,62.14
2017-07-17T01:07:42.217Z,62.12
2017-07-17T01:10:10.170Z,62.14
2017-07-17T01:12:38.098Z,62.15
2017-07-17T01:15:06.057Z,62.13
2017-07-17T01:17:34.014Z,62.11
2017-07-17T01:20:01.942Z,62.08
2017-07-17T01:22:29.870Z,62.06
2017-07-17T01:24:57.791Z,62.05
2017-07-17T01:27:25.709Z,62.05
2017-07-17T01:29:53.653Z,62.05
2017-07-17T01:32:21.601Z,62.07
2017-07-17T01:34:49.529Z,62.00
2017-07-17T01:37:17.490Z,62.03
2017-07-17T01:39:45.431Z,62.05
2017-07-17T01:42:13.363Z,62.00
2017-07-17T01:44:41.325Z,62.01
2017-07-17T01:47:09.266Z,62.03
2017-07-17T01:49:37.225Z,62.04
2017-07-17T01:52:05.153Z,61.99
2017-07-17T01:54:33.080Z,61.98
2017-07-17T01:57:01.004Z,61.98
2017-07-17T01:59:28.929Z,62.04
2017-07-17T02:01:56.865Z,62.02
2017-07-17T02:04:24.787Z,62.03
2017-07-17T02:06:52.703Z,62.02
2017-07-17T02:09:20.634Z,62.05
2017-07-17T02:11:48.541Z,62.04
2017-07-17T02:14:16.515Z,62.05
2017-07-17T02:16:44.440Z,62.02
2017-07-17T02:19:12.383Z,62.02
2017-07-17T02:21:40.307Z,62.02
2017-07-17T02:24:08.254Z,62.02
2017-07-17T02:26:36.215Z,62.02
2017-07-17T02:29:04.149Z,62.03
2017-07-17T02:31:32.068Z,62.03
2017-07-17T02:33:59.993Z,62.05
2017-07-17T02:36:27.918Z,62.05
2017-07-17T02:38:55.873Z,62.07
2017-07-17T02:41:23.786Z,62.01
2017-07-17T02:43:51.713Z,62.01
2017-07-17T02:46:19.649Z,62.00
2017-07-17T02:48:47.564Z,62.00
2017-07-17T02:51:15.503Z,62.05
2017-07-17T02:53:43.432Z,62.04
2017-07-17T02:56:11.353Z,61.99
2017-07-17T02:58:39.268Z,61.96
2017-07-17T03:01:07.190Z,61.96
2017-07-17T03:03:35.126Z,61.94
2017-07-17T03:06:03.046Z,61.96
2017-07-17T03:08:30.961Z,61.93
2017-07-17T03:10:58.886Z,61.90
2017-07-17T03:13:26.811Z,61.88
2017-07-17T03:15:54.752Z,61.91
2017-07-17T03:18:22.667Z,61.87
2017-07-17T03:20:50.605Z,61.91
2017-07-17T03:23:18.580Z,61.89
2017-07-17T03:25:46.510Z,61.85
2017-07-17T03:28:14.487Z,61.84
2017-07-17T03:30:42.401Z,61.79
2017-07-17T03:33:10.333Z,61.79
2017-07-17T03:35:38.249Z,61.80
2017-07-17T03:38:06.182Z,61.80
2017-07-17T03:40:34.138Z,61.81
2017-07-17T03:43:02.069Z,61.81
2017-07-17T03:45:29.993Z,61.82
2017-07-17T03:47:57.918Z,61.77
2017-07-17T03:50:26.630Z,61.75
2017-07-17T03:52:54.575Z,61.75
2017-07-17T03:55:22.498Z,61.74
2017-07-17T03:57:50.409Z,61.79
2017-07-17T04:00:18.325Z,61.78
2017-07-17T04:02:46.251Z,61.78
2017-07-17T04:05:14.229Z,61.77
2017-07-17T04:07:42.144Z,61.76
2017-07-17T04:10:10.063Z,61.78
2017-07-17T04:12:37.985Z,61.77
2017-07-17T04:15:05.933Z,61.80
2017-07-17T04:17:33.878Z,61.75
2017-07-17T04:20:01.831Z,61.77
2017-07-17T04:22:29.737Z,61.78
2017-07-17T04:24:57.654Z,61.73
2017-07-17T04:27:25.590Z,61.76
2017-07-17T04:29:53.518Z,61.74
2017-07-17T04:32:21.445Z,61.77
2017-07-17T04:34:49.361Z,61.78
2017-07-17T04:37:17.313Z,61.78
2017-07-17T04:39:45.234Z,61.79
2017-07-17T04:42:13.162Z,61.78
2017-07-17T04:44:41.086Z,61.75
2017-07-17T04:47:09.049Z,61.77
2017-07-17T04:49:37.024Z,61.79
2017-07-17T04:52:04.977Z,61.77
2017-07-17T04:54:32.915Z,61.74
2017-07-17T04:57:00.844Z,61.73
2017-07-17T04:59:28.783Z,61.71
2017-07-17T05:01:56.727Z,61.72
2017-07-17T05:04:24.661Z,61.68
2017-07-17T05:06:52.590Z,61.68
2017-07-17T05:09:20.524Z,61.67
2017-07-17T05:11:48.451Z,61.66
2017-07-17T05:14:16.402Z,61.68
2017-07-17T05:16:44.334Z,61.67
2017-07-17T05:19:12.777Z,61.66
2017-07-17T05:21:40.700Z,61.65
2017-07-17T05:24:08.628Z,61.64
2017-07-17T05:26:36.671Z,61.66
2017-07-17T05:29:04.602Z,61.66
2017-07-17T05:31:32.559Z,61.63
2017-07-17T05:34:00.504Z,61.63
2017-07-17T05:36:28.463Z,61.60
2017-07-17T05:38:56.433Z,61.57
2017-07-17T05:41:24.382Z,61.59
2017-07-17T05:43:52.298Z,61.58
2017-07-17T05:46:20.234Z,61.59
2017-07-17T05:48:48.166Z,62.55
2017-07-17T05:51:16.109Z,62.41
2017-07-17T05:53:44.052Z,62.71
2017-07-17T05:56:11.998Z,63.05
2017-07-17T05:58:39.954Z,64.09
2017-07-17T06:01:07.894Z,64.82
2017-07-17T06:03:35.840Z,64.51
2017-07-17T06:06:03.764Z,64.71
2017-07-17T06:08:31.692Z,64.97
2017-07-17T06:10:59.624Z,65.04
2017-07-17T06:13:27.543Z,65.16
2017-07-17T06:15:55.503Z,64.89
2017-07-17T06:18:23.434Z,64.55
2017-07-17T06:20:51.373Z,63.95
2017-07-17T06:23:19.289Z,63.85
2017-07-17T06:25:47.211Z,63.62
2017-07-17T06:28:15.175Z,63.47
2017-07-17T06:30:43.107Z,63.31
2017-07-17T06:33:11.051Z,63.77
2017-07-17T06:35:39.002Z,64.00
2017-07-17T06:38:06.947Z,65.16
2017-07-17T06:40:34.891Z,64.50
2017-07-17T06:43:02.883Z,63.95
2017-07-17T06:45:30.817Z,63.49
2017-07-17T06:47:58.739Z,63.08
2017-07-17T06:50:26.673Z,62.89
2017-07-17T06:52:54.626Z,62.75
2017-07-17T06:55:22.554Z,62.73
2017-07-17T06:57:50.477Z,62.67
2017-07-17T07:00:18.430Z,62.63
2017-07-17T07:02:46.365Z,62.62
2017-07-17T07:05:14.401Z,62.61
2017-07-17T07:07:42.331Z,62.58
2017-07-17T07:10:10.267Z,62.56
2017-07-17T07:12:38.193Z,62.54
2017-07-17T07:15:06.134Z,62.50
2017-07-17T07:17:34.082Z,62.47
2017-07-17T07:20:01.994Z,62.51
2017-07-17T07:22:29.929Z,62.48
2017-07-17T07:24:57.854Z,62.42
2017-07-17T07:27:25.794Z,62.44
2017-07-17T07:29:53.752Z,62.38
2017-07-17T07:32:21.688Z,62.32
2017-07-17T07:34:49.618Z,62.29
2017-07-17T07:37:17.593Z,62.24
2017-07-17T07:39:45.559Z,62.20
2017-07-17T07:42:13.510Z,62.18
2017-07-17T07:44:41.438Z,62.16
2017-07-17T07:47:09.378Z,62.13
2017-07-17T07:49:37.314Z,62.10
2017-07-17T07:52:05.465Z,62.06
2017-07-17T07:54:33.596Z,62.05
2017-07-17T07:57:01.534Z,61.99
2017-07-17T07:59:29.680Z,61.94
2017-07-17T08:01:57.861Z,61.94
2017-07-17T08:04:26.031Z,61.93
2017-07-17T08:06:54.201Z,61.85
2017-07-17T08:09:22.310Z,61.84
2017-07-17T08:11:50.460Z,61.83
2017-07-17T08:14:18.438Z,61.79
2017-07-17T08:16:46.530Z,61.77
2017-07-17T08:19:14.686Z,61.72
2017-07-17T08:21:42.618Z,61.68
2017-07-17T08:24:10.562Z,61.66
2017-07-17T08:26:38.521Z,61.60
2017-07-17T08:29:06.451Z,61.56
2017-07-17T08:31:34.395Z,61.57
2017-07-17T08:34:02.348Z,61.51
2017-07-17T08:36:30.303Z,61.51
2017-07-17T08:38:58.293Z,61.45
2017-07-17T08:41:26.240Z,61.46
2017-07-17T08:43:54.191Z,61.39
2017-07-17T08:46:22.129Z,61.40
2017-07-17T08:48:50.092Z,61.36
2017-07-17T08:51:18.066Z,61.33
2017-07-17T08:53:46.207Z,61.32
2017-07-17T08:56:14.141Z,61.32
2017-07-17T08:58:42.075Z,61.31
2017-07-17T09:01:09.998Z,61.24
2017-07-17T09:03:37.973Z,61.23
2017-07-17T09:06:05.899Z,61.21
2017-07-17T09:08:33.884Z,61.19
2017-07-17T09:11:01.831Z,61.17
2017-07-17T09:13:29.787Z,61.16
2017-07-17T09:15:57.747Z,61.12
2017-07-17T09:18:25.722Z,61.10
2017-07-17T09:20:53.660Z,61.13
2017-07-17T09:23:21.613Z,61.08
2017-07-17T09:25:49.564Z,61.07
2017-07-17T09:28:17.514Z,61.08
2017-07-17T09:30:45.445Z,61.06
2017-07-17T09:33:13.387Z,61.03
2017-07-17T09:35:41.310Z,61.01
2017-07-17T09:38:09.269Z,60.96
2017-07-17T09:40:37.321Z,60.93
2017-07-17T09:43:05.402Z,60.90
2017-07-17T09:45:33.758Z,60.89
2017-07-17T09:48:01.886Z,60.84
2017-07-17T09:50:29.821Z,60.84
2017-07-17T09:52:58.022Z,60.78
2017-07-17T09:55:25.984Z,60.78
2017-07-17T09:57:54.125Z,60.78
2017-07-17T10:00:22.097Z,60.73
2017-07-17T10:02:50.082Z,60.69
2017-07-17T10:05:18.062Z,60.70
2017-07-17T10:07:46.017Z,60.67
2017-07-17T10:10:13.976Z,60.66
2017-07-17T10:12:42.329Z,60.61
2017-07-17T10:15:10.542Z,60.62
2017-07-17T10:17:38.517Z,60.61
2017-07-17T10:20:06.475Z,60.64
2017-07-17T10:22:34.435Z,60.59
2017-07-17T10:25:02.383Z,60.56
2017-07-17T10:27:30.313Z,60.53
2017-07-17T10:29:58.283Z,60.53
2017-07-17T10:32:26.228Z,60.51
2017-07-17T10:34:54.212Z,60.49
2017-07-17T10:37:22.146Z,60.58
2017-07-17T10:39:50.146Z,60.69
2017-07-17T10:42:18.117Z,60.75
2017-07-17T10:44:46.043Z,60.85
2017-07-17T10:47:14.236Z,60.76
2017-07-17T10:49:42.171Z,60.73
2017-07-17T10:52:10.113Z,60.70
2017-07-17T10:54:38.101Z,60.69
2017-07-17T10:57:06.052Z,60.62
2017-07-17T10:59:34.011Z,60.66
2017-07-17T11:02:01.965Z,60.55
2017-07-17T11:04:29.907Z,60.46
2017-07-17T11:06:57.905Z,60.39
2017-07-17T11:09:25.850Z,60.25
2017-07-17T11:11:53.795Z,60.15
2017-07-17T11:14:21.723Z,59.47
2017-07-17T11:16:49.655Z,59.57
2017-07-17T11:19:17.670Z,59.42
2017-07-17T11:21:45.588Z,59.22
2017-07-17T11:24:13.511Z,58.93
2017-07-17T11:26:41.469Z,58.51
2017-07-17T11:29:09.403Z,58.26
2017-07-17T11:31:37.363Z,58.06
2017-07-17T11:34:05.302Z,57.55
2017-07-17T11:36:33.246Z,57.09
2017-07-17T11:39:01.178Z,57.29
2017-07-17T11:41:29.106Z,57.15
2017-07-17T11:43:57.080Z,56.92
2017-07-17T11:56:39.320Z,55.13
2017-07-17T11:59:07.354Z,54.84
2017-07-17T12:01:35.312Z,54.88
2017-07-17T12:04:03.256Z,54.59
2017-07-17T12:06:31.187Z,54.44
2017-07-17T12:08:59.128Z,54.40
2017-07-17T12:11:27.083Z,54.13
2017-07-17T12:13:55.083Z,54.01
2017-07-17T12:16:23.031Z,54.03
2017-07-17T12:18:51.011Z,53.89
2017-07-17T12:21:18.943Z,53.83
2017-07-17T12:23:46.946Z,53.86
2017-07-17T12:26:14.917Z,53.73
2017-07-17T12:28:42.850Z,53.57
2017-07-17T12:31:10.799Z,53.54
2017-07-17T12:33:39.007Z,53.40
2017-07-17T12:36:07.001Z,53.39
2017-07-17T12:38:34.951Z,53.02
2017-07-17T12:41:02.884Z,53.04
2017-07-17T12:43:30.819Z,52.84
2017-07-17T12:45:58.771Z,52.84
2017-07-17T12:48:26.743Z,52.40
2017-07-17T12:50:54.684Z,52.46
2017-07-17T12:53:22.620Z,52.40
2017-07-17T12:55:50.579Z,52.17
2017-07-17T12:58:18.532Z,52.08
2017-07-17T13:00:46.518Z,51.84
2017-07-17T13:03:14.459Z,51.53
2017-07-17T13:05:42.425Z,51.45
2017-07-17T13:08:10.395Z,51.19
2017-07-17T13:10:38.344Z,51.20
2017-07-17T13:13:06.313Z,51.50
2017-07-17T13:15:34.263Z,51.30
2017-07-17T13:18:02.207Z,51.70
2017-07-17T13:20:30.185Z,51.39
2017-07-17T13:22:58.135Z,51.32
2017-07-17T13:25:26.094Z,50.74
2017-07-17T13:27:54.063Z,50.80
2017-07-17T13:30:22.057Z,50.69
2017-07-17T13:32:49.999Z,51.04
2017-07-17T13:35:17.939Z,51.33
2017-07-17T13:37:45.915Z,51.40
2017-07-17T13:40:13.860Z,51.44
2017-07-17T13:42:41.811Z,51.29
2017-07-17T13:45:09.755Z,51.31
2017-07-17T13:47:37.909Z,51.10
2017-07-17T13:50:05.887Z,51.08
2017-07-17T13:52:33.847Z,50.91
2017-07-17T13:55:01.783Z,50.64
2017-07-17T13:57:29.726Z,50.07
2017-07-17T13:59:57.663Z,49.93
2017-07-17T14:02:25.614Z,49.72
2017-07-17T14:04:53.565Z,49.69
2017-07-17T14:07:21.507Z,49.98
2017-07-17T14:09:49.438Z,49.89
2017-07-17T14:12:17.841Z,49.94
2017-07-17T14:14:45.880Z,49.78
2017-07-17T14:17:13.833Z,49.81
2017-07-17T14:19:42.029Z,49.91
2017-07-17T14:22:09.979Z,50.03
2017-07-17T14:24:37.935Z,49.86
2017-07-17T14:27:05.901Z,49.87
2017-07-17T14:29:33.859Z,49.85
2017-07-17T14:32:01.800Z,49.62
2017-07-17T14:34:29.735Z,49.72
2017-07-17T14:36:57.667Z,49.66
2017-07-17T14:39:25.634Z,49.79
2017-07-17T14:41:53.612Z,49.81
2017-07-17T14:44:21.556Z,50.07
2017-07-17T14:46:49.482Z,50.25
2017-07-17T14:49:17.411Z,50.52
2017-07-17T14:51:45.358Z,50.69
2017-07-17T14:54:13.296Z,50.89
2017-07-17T14:56:41.339Z,51.05
2017-07-17T14:59:09.444Z,51.15
2017-07-17T15:01:37.382Z,51.27
2017-07-17T15:04:05.338Z,51.20
2017-07-17T15:06:33.437Z,51.12
2017-07-17T15:09:01.886Z,51.13
2017-07-17T15:11:29.856Z,51.36
2017-07-17T15:13:57.897Z,51.57
2017-07-17T15:16:25.884Z,51.79
2017-07-17T15:18:53.903Z,51.86
2017-07-17T15:21:21.917Z,52.01
2017-07-17T15:23:49.876Z,52.09
2017-07-17T15:26:17.833Z,52.22
2017-07-17T15:28:45.840Z,52.11
2017-07-17T15:31:13.839Z,52.23
2017-07-17T15:33:41.787Z,52.26
2017-07-17T15:36:09.843Z,52.27
2017-07-17T15:38:37.800Z,52.23
2017-07-17T15:41:05.752Z,52.24
2017-07-17T15:43:33.708Z,51.22
2017-07-17T15:46:02.102Z,49.15
2017-07-17T15:48:30.036Z,49.85
2017-07-17T15:50:57.987Z,50.26
2017-07-17T15:53:25.992Z,50.43
2017-07-17T15:55:53.943Z,50.66
2017-07-17T15:58:21.899Z,50.86
2017-07-17T16:00:49.840Z,51.04
2017-07-17T16:03:17.839Z,51.17
2017-07-17T16:05:45.951Z,51.37
2017-07-17T16:08:13.905Z,51.56
2017-07-17T16:10:41.875Z,51.70
2017-07-17T16:13:09.819Z,51.76
2017-07-17T16:15:37.775Z,51.91
2017-07-17T16:18:05.716Z,52.01
2017-07-17T16:20:33.656Z,48.67
2017-07-17T16:23:02.036Z,47.87
2017-07-17T16:25:30.567Z,48.63
2017-07-17T16:27:58.851Z,48.30
2017-07-17T16:30:26.808Z,47.48
2017-07-17T16:32:54.819Z,46.90
2017-07-17T16:35:22.868Z,46.34
2017-07-17T16:37:51.219Z,46.37
2017-07-17T16:40:19.359Z,47.18
2017-07-17T16:42:47.505Z,47.07
2017-07-17T16:45:15.581Z,47.57
2017-07-17T16:47:43.900Z,47.55
2017-07-17T16:50:12.246Z,47.50
2017-07-17T16:52:40.347Z,47.20
2017-07-17T16:55:08.298Z,46.94
2017-07-17T16:57:36.267Z,47.33
2017-07-17T17:00:04.227Z,47.06
2017-07-17T17:02:32.190Z,47.07
2017-07-17T17:05:00.135Z,47.63
2017-07-17T17:07:28.096Z,47.80
2017-07-17T17:09:56.059Z,47.70
2017-07-17T17:12:24.020Z,48.12
2017-07-17T17:14:51.971Z,47.72
2017-07-17T17:17:19.923Z,47.45
2017-07-17T17:19:47.915Z,47.90
2017-07-17T17:22:15.868Z,47.80
2017-07-17T17:24:43.826Z,47.44
2017-07-17T17:27:11.774Z,47.95
2017-07-17T17:29:39.719Z,48.03
2017-07-17T17:32:07.670Z,48.24
2017-07-17T17:34:35.623Z,48.24
2017-07-17T17:37:03.599Z,48.52
2017-07-17T17:39:31.535Z,48.67
2017-07-17T17:41:59.492Z,48.91
2017-07-17T17:44:27.437Z,48.96
2017-07-17T17:46:55.451Z,48.86
2017-07-17T17:49:23.403Z,49.03
2017-07-17T17:51:51.403Z,49.25
2017-07-17T17:54:19.346Z,49.22
2017-07-17T17:56:47.320Z,49.33
2017-07-17T17:59:15.287Z,49.46
2017-07-17T18:01:43.220Z,50.22
2017-07-17T18:04:11.193Z,49.90
2017-07-17T18:06:39.164Z,49.74
2017-07-17T18:09:07.109Z,49.77
2017-07-17T18:11:35.060Z,49.50
2017-07-17T18:14:02.992Z,49.56
2017-07-17T18:16:31.033Z,49.40
2017-07-17T18:18:58.986Z,49.90
2017-07-17T18:21:26.969Z,50.04
2017-07-17T18:23:54.966Z,50.09
2017-07-17T18:26:22.928Z,50.30
2017-07-17T18:28:50.922Z,50.58
2017-07-17T18:31:18.891Z,50.69
2017-07-17T18:33:47.012Z,50.92
2017-07-17T18:36:15.031Z,50.91
2017-07-17T18:38:42.979Z,50.82
2017-07-17T18:41:10.957Z,50.89
2017-07-17T18:43:38.941Z,50.96
2017-07-17T18:46:06.898Z,50.82
2017-07-17T18:48:34.843Z,50.84
2017-07-17T18:51:02.819Z,50.70
2017-07-17T18:53:30.799Z,50.75
2017-07-17T18:55:58.737Z,50.85
2017-07-17T18:58:26.671Z,51.12
2017-07-17T19:00:54.638Z,51.28
2017-07-17T19:03:22.571Z,51.36
2017-07-17T19:05:50.564Z,51.37
2017-07-17T19:08:18.561Z,51.39
2017-07-17T19:10:46.693Z,51.25
2017-07-17T19:13:14.702Z,50.97
2017-07-17T19:15:42.715Z,50.98
2017-07-17T19:18:10.667Z,51.10
2017-07-17T19:20:38.616Z,51.08
2017-07-17T19:23:06.631Z,51.09
2017-07-17T19:25:34.593Z,51.18
2017-07-17T19:28:02.565Z,51.30
2017-07-17T19:30:30.516Z,51.37
2017-07-17T19:32:58.496Z,51.41
2017-07-17T19:35:26.474Z,51.53
2017-07-17T19:37:54.532Z,51.64
2017-07-17T19:40:22.480Z,51.72
2017-07-17T19:42:50.426Z,51.91
2017-07-17T19:45:18.403Z,51.89
2017-07-17T19:47:46.742Z,51.82
2017-07-17T19:50:14.725Z,51.76
2017-07-17T19:52:42.728Z,51.80
2017-07-17T19:55:10.671Z,51.66
2017-07-17T19:57:38.663Z,51.81
2017-07-17T20:00:06.698Z,52.01
2017-07-17T20:02:34.721Z,52.04
2017-07-17T20:05:02.700Z,51.84
2017-07-17T20:07:30.661Z,51.83
2017-07-17T20:09:58.619Z,51.94
2017-07-17T20:12:26.602Z,52.01
2017-07-17T20:14:54.635Z,51.98
2017-07-17T20:17:22.594Z,52.04
2017-07-17T20:19:50.542Z,52.16
2017-07-17T20:22:18.488Z,52.30
2017-07-17T20:24:46.466Z,52.44
2017-07-17T20:27:14.434Z,52.55
2017-07-17T20:29:42.410Z,52.71
2017-07-17T20:32:10.368Z,52.94
2017-07-17T20:34:38.328Z,52.97
2017-07-17T20:37:06.315Z,53.01
2017-07-17T20:39:34.299Z,53.08
2017-07-17T20:42:02.290Z,53.23
2017-07-17T20:44:30.310Z,53.30
2017-07-17T20:46:58.266Z,53.39
2017-07-17T20:49:26.236Z,53.41
2017-07-17T20:51:54.173Z,53.60
2017-07-17T20:54:22.111Z,53.65
2017-07-17T20:56:50.059Z,53.61
2017-07-17T20:59:18.031Z,53.50
2017-07-17T21:01:46.063Z,53.43
2017-07-17T21:04:14.054Z,53.43
2017-07-17T21:06:42.007Z,53.54
2017-07-17T21:09:09.990Z,53.54
2017-07-17T21:11:37.963Z,53.50
2017-07-17T21:14:05.940Z,53.68
2017-07-17T21:16:34.019Z,53.69
2017-07-17T21:19:01.963Z,53.83
2017-07-17T21:21:29.938Z,54.13
2017-07-17T21:23:57.951Z,54.32
2017-07-17T21:26:25.915Z,54.29
2017-07-17T21:28:53.872Z,54.29
2017-07-17T21:31:21.829Z,54.28
2017-07-17T21:33:49.763Z,54.21
2017-07-17T21:36:17.710Z,54.12
2017-07-17T21:38:45.904Z,54.23
2017-07-17T21:41:13.867Z,54.24
2017-07-17T21:43:41.832Z,54.27
2017-07-17T21:46:09.911Z,54.33
2017-07-17T21:48:37.896Z,54.48
2017-07-17T21:51:05.949Z,54.57
2017-07-17T21:53:33.976Z,54.67
2017-07-17T21:56:01.934Z,54.32
2017-07-17T21:58:29.893Z,54.50
2017-07-17T22:00:57.838Z,54.46
2017-07-17T22:03:25.818Z,54.36
2017-07-17T22:05:53.774Z,54.31
2017-07-17T22:08:21.743Z,54.29
2017-07-17T22:10:49.726Z,54.30
2017-07-17T22:13:17.680Z,54.28
2017-07-17T22:15:45.641Z,54.30
2017-07-17T22:18:13.578Z,54.31
2017-07-17T22:20:41.607Z,54.33
2017-07-17T22:23:09.549Z,54.34
2017-07-17T22:25:37.487Z,54.38
2017-07-17T22:28:05.461Z,54.42
2017-07-17T22:30:33.401Z,54.41
2017-07-17T22:33:01.460Z,54.48
2017-07-17T22:35:29.384Z,54.53
2017-07-17T22:37:57.346Z,54.56
2017-07-17T22:40:25.352Z,54.55
2017-07-17T22:42:53.298Z,54.62
2017-07-17T22:45:21.222Z,54.65
2017-07-17T22:47:49.150Z,54.64
2017-07-17T22:50:17.089Z,54.67
2017-07-17T22:52:45.038Z,54.73
2017-07-17T22:55:12.963Z,54.74
2017-07-17T22:57:41.130Z,54.78
2017-07-17T23:00:09.095Z,54.82
2017-07-17T23:02:37.032Z,54.82
2017-07-17T23:05:05.035Z,54.89
2017-07-17T23:07:32.979Z,54.88
2017-07-17T23:10:00.935Z,54.89
2017-07-17T23:12:28.879Z,54.93
2017-07-17T23:14:56.825Z,54.94
2017-07-17T23:17:24.772Z,54.99
2017-07-17T23:19:52.711Z,55.00
2017-07-17T23:22:20.654Z,55.00
2017-07-17T23:24:48.591Z,55.07
2017-07-17T23:27:16.534Z,55.07
2017-07-17T23:29:44.595Z,55.12
2017-07-17T23:32:12.545Z,55.13
2017-07-17T23:34:40.484Z,55.17
2017-07-17T23:37:08.431Z,55.15
2017-07-17T23:39:36.358Z,55.16
2017-07-17T23:42:04.291Z,55.18
2017-07-17T23:44:32.336Z,55.20
2017-07-17T23:47:00.305Z,55.24
2017-07-17T23:49:28.263Z,55.25
2017-07-17T23:51:56.196Z,55.24
2017-07-17T23:54:24.123Z,55.26
2017-07-17T23:56:52.069Z,55.29
2017-07-17T23:59:20.016Z,55.29
